Time;durP1;ratioP1;P1;durP2;ratioP2;P2;SDS_P1;SDS_P2;PMS_P1;PMS_P2;Temp;Humidity;BMP_temperature;BMP_pressure;BME280_temperature;BME280_humidity;BME280_pressure;Samples;Min_cycle;Max_cycle;Signal;HPM_P1;HPM_P2
2022/01/01 00:02:20;;;;;;;;;;;;;;;19.04;54.54;102375.28;5004484;28;19957;-42
2022/01/01 00:05:03;;;;;;;;;;;;;;;19.03;54.53;102376.28;5006417;28;19932;-42
2022/01/01 00:07:29;;;;;;;;;;;;;;;19.02;54.88;102374.56;5006365;28;19925;-42
2022/01/01 00:09:56;;;;;;;;;;;;;;;19.02;54.85;102376.41;5002918;28;19929;-42
2022/01/01 00:12:27;;;;;;;;;;;;;;;19.01;54.29;102383.59;5007022;28;20214;-42
2022/01/01 00:14:53;;;;;;;;;;;;;;;18.99;54.54;102385.56;5003636;28;19925;-42
2022/01/01 00:17:19;;;;;;;;;;;;;;;18.99;54.20;102380.19;5003867;28;19921;-42
2022/01/01 00:19:46;;;;;;;;;;;;;;;18.97;54.38;102385.69;5006065;28;19926;-42
2022/01/01 00:22:12;;;;;;;;;;;;;;;18.97;54.52;102392.88;5004966;28;19921;-42
2022/01/01 00:24:38;;;;;;;;;;;;;;;18.95;54.06;102384.09;4996446;28;19922;-42
2022/01/01 00:27:05;;;;;;;;;;;;;;;18.94;54.65;102377.03;5007294;28;19921;-40
2022/01/01 00:29:31;;;;;;;;;;;;;;;18.94;54.34;102375.19;5004861;28;19930;-41
2022/01/01 00:31:58;;;;;;;;;;;;;;;18.93;54.72;102372.59;5006061;28;20490;-40
2022/01/01 00:34:24;;;;;;;;;;;;;;;18.93;54.42;102375.28;5007913;28;19971;-40
2022/01/01 00:36:51;;;;;;;;;;;;;;;18.91;54.76;102372.75;5006555;28;19929;-40
2022/01/01 00:39:17;;;;;;;;;;;;;;;18.91;54.48;102358.44;5003004;28;20509;-40
2022/01/01 00:41:44;;;;;;;;;;;;;;;18.90;54.35;102354.91;5008640;28;20004;-40
2022/01/01 00:44:10;;;;;;;;;;;;;;;18.89;54.29;102363.06;5004321;28;20024;-40
2022/01/01 00:46:36;;;;;;;;;;;;;;;18.89;54.70;102363.94;5008873;28;19926;-40
2022/01/01 00:49:03;;;;;;;;;;;;;;;18.88;54.34;102358.69;5005876;28;20045;-40
2022/01/01 00:51:29;;;;;;;;;;;;;;;18.87;54.47;102359.66;5006107;28;20482;-41
2022/01/01 00:53:56;;;;;;;;;;;;;;;18.86;54.79;102363.34;5005933;28;20012;-41
2022/01/01 00:56:22;;;;;;;;;;;;;;;18.86;54.75;102360.66;5005907;28;19922;-40
2022/01/01 00:58:49;;;;;;;;;;;;;;;18.84;54.83;102371.50;5003660;28;19922;-41
2022/01/01 01:01:15;;;;;;;;;;;;;;;18.85;54.36;102367.00;5008862;28;19935;-41
2022/01/01 01:03:42;;;;;;;;;;;;;;;18.84;54.54;102366.13;5009600;28;20021;-41
2022/01/01 01:06:10;;;;;;;;;;;;;;;18.83;54.42;102364.44;5004506;28;20111;-41
2022/01/01 01:08:37;;;;;;;;;;;;;;;18.82;54.54;102365.41;5007407;28;19971;-41
2022/01/01 01:11:07;;;;;;;;;;;;;;;18.81;54.54;102376.25;5004167;28;19928;-41
2022/01/01 01:13:38;;;;;;;;;;;;;;;18.79;54.81;102376.41;5004411;28;20031;-41
2022/01/01 01:16:05;;;;;;;;;;;;;;;18.79;54.77;102379.09;5007489;28;19929;-41
2022/01/01 01:18:31;;;;;;;;;;;;;;;18.80;55.03;102391.53;5008008;28;20004;-41
2022/01/01 01:20:58;;;;;;;;;;;;;;;18.78;54.84;102393.50;5004806;28;19922;-42
2022/01/01 01:23:24;;;;;;;;;;;;;;;18.79;54.70;102391.66;5010482;28;19968;-40
2022/01/01 01:25:50;;;;;;;;;;;;;;;18.78;54.85;102401.56;5005895;28;19980;-40
2022/01/01 01:28:17;;;;;;;;;;;;;;;18.77;55.01;102399.81;5007694;28;19929;-40
2022/01/01 01:30:45;;;;;;;;;;;;;;;18.79;55.10;102394.34;5010675;28;19921;-41
2022/01/01 01:33:12;;;;;;;;;;;;;;;18.77;55.12;102397.13;5008657;28;20279;-42
2022/01/01 01:35:38;;;;;;;;;;;;;;;18.78;55.39;102398.88;5006985;28;19928;-42
2022/01/01 01:38:05;;;;;;;;;;;;;;;18.77;55.18;102399.81;5005746;28;20321;-42
2022/01/01 01:40:31;;;;;;;;;;;;;;;18.77;55.57;102415.94;5004899;28;19925;-42
2022/01/01 01:42:58;;;;;;;;;;;;;;;18.77;55.63;102410.56;5008652;28;20360;-42
2022/01/01 01:45:28;;;;;;;;;;;;;;;18.77;55.25;102404.34;5008476;28;20109;-42
2022/01/01 01:47:54;;;;;;;;;;;;;;;18.76;55.02;102408.00;5007220;28;19959;-42
2022/01/01 01:50:21;;;;;;;;;;;;;;;18.76;55.02;102408.00;5008387;28;19951;-40
2022/01/01 01:52:49;;;;;;;;;;;;;;;18.76;55.48;102402.66;5005930;28;20329;-40
2022/01/01 01:55:15;;;;;;;;;;;;;;;18.74;55.48;102392.88;5004433;28;19925;-40
2022/01/01 01:57:42;;;;;;;;;;;;;;;18.76;55.24;102395.44;5010116;28;20372;-41
2022/01/01 02:00:20;;;;;;;;;;;;;;;18.73;55.35;102391.19;5008614;28;19932;-40
2022/01/01 02:02:46;;;;;;;;;;;;;;;18.73;55.20;102401.03;5007749;28;19929;-40
2022/01/01 02:05:13;;;;;;;;;;;;;;;18.72;55.34;102402.88;5008938;28;19929;-40
2022/01/01 02:07:40;;;;;;;;;;;;;;;18.72;55.71;102402.88;5006472;28;19921;-40
2022/01/01 02:10:07;;;;;;;;;;;;;;;18.73;55.71;102401.03;5007663;28;19929;-41
2022/01/01 02:12:34;;;;;;;;;;;;;;;18.73;55.28;102403.72;5009138;28;19936;-40
2022/01/01 02:17:29;;;;;;;;;;;;;;;18.73;55.43;102403.72;5007204;28;19930;-40
2022/01/01 02:20:02;;;;;;;;;;;;;;;18.72;55.78;102405.56;5006453;28;19925;-40
2022/01/01 02:22:47;;;;;;;;;;;;;;;18.71;55.60;102406.53;5005027;28;19948;-40
2022/01/01 02:25:17;;;;;;;;;;;;;;;18.72;55.64;102400.19;5005281;28;19925;-40
2022/01/01 02:27:43;;;;;;;;;;;;;;;18.71;55.61;102401.16;5007059;28;19929;-40
2022/01/01 02:30:11;;;;;;;;;;;;;;;18.71;55.36;102394.94;5005967;28;19928;-40
2022/01/01 02:32:37;;;;;;;;;;;;;;;18.71;55.78;102387.75;5006046;28;20000;-41
2022/01/01 02:35:05;;;;;;;;;;;;;;;18.70;55.80;102383.34;5007366;28;19925;-41
2022/01/01 02:37:31;;;;;;;;;;;;;;;18.71;55.74;102379.69;5004900;28;19925;-41
2022/01/01 02:39:58;;;;;;;;;;;;;;;18.72;55.58;102369.78;5003492;28;20015;-41
2022/01/01 02:42:25;;;;;;;;;;;;;;;18.72;55.80;102380.53;5005487;28;20004;-41
2022/01/01 02:44:53;;;;;;;;;;;;;;;18.72;55.83;102372.47;5005600;28;20336;-41
2022/01/01 02:47:21;;;;;;;;;;;;;;;18.71;55.78;102371.63;5008663;28;19929;-41
2022/01/01 02:49:47;;;;;;;;;;;;;;;18.71;56.29;102377.00;5005245;28;19922;-41
2022/01/01 02:52:14;;;;;;;;;;;;;;;18.71;56.10;102381.53;5007784;28;19928;-41
2022/01/01 02:54:40;;;;;;;;;;;;;;;18.71;56.04;102385.06;5005238;28;19926;-41
2022/01/01 02:57:06;;;;;;;;;;;;;;;18.71;56.11;102386.91;5005071;28;19921;-41
2022/01/01 02:59:33;;;;;;;;;;;;;;;18.71;55.79;102386.91;5004491;28;19929;-41
2022/01/01 03:01:59;;;;;;;;;;;;;;;18.70;55.94;102396.78;5010266;28;20349;-41
2022/01/01 03:04:26;;;;;;;;;;;;;;;18.71;56.17;102386.91;5007372;28;19925;-41
2022/01/01 03:06:55;;;;;;;;;;;;;;;18.70;56.17;102396.78;5004406;28;19933;-41
2022/01/01 03:09:23;;;;;;;;;;;;;;;18.70;56.19;102388.72;5005403;28;19925;-41
2022/01/01 03:11:50;;;;;;;;;;;;;;;18.70;55.83;102404.00;5005963;28;19927;-43
2022/01/01 03:14:17;;;;;;;;;;;;;;;18.70;56.03;102404.84;5007021;28;20207;-41
2022/01/01 03:16:45;;;;;;;;;;;;;;;18.70;55.90;102388.72;5004771;28;19931;-41
2022/01/01 03:19:11;;;;;;;;;;;;;;;18.70;56.01;102391.41;5005586;28;19921;-41
2022/01/01 03:21:38;;;;;;;;;;;;;;;18.69;56.19;102378.94;5006408;28;19926;-41
2022/01/01 03:24:04;;;;;;;;;;;;;;;18.69;56.03;102381.63;5006048;28;20335;-41
2022/01/01 03:26:30;;;;;;;;;;;;;;;18.69;56.17;102384.31;5005663;28;19936;-42
2022/01/01 03:28:57;;;;;;;;;;;;;;;18.68;55.82;102374.50;5004283;28;19921;-41
2022/01/01 03:31:26;;;;;;;;;;;;;;;18.68;55.88;102371.81;5006873;28;19921;-40
2022/01/01 03:33:53;;;;;;;;;;;;;;;18.68;56.10;102369.16;5005870;28;19928;-40
2022/01/01 03:36:19;;;;;;;;;;;;;;;18.68;56.13;102371.81;5005710;28;19930;-40
2022/01/01 03:38:45;;;;;;;;;;;;;;;18.68;56.16;102374.50;5006307;28;20260;-41
2022/01/01 03:41:12;;;;;;;;;;;;;;;18.67;55.83;102378.19;5003645;28;19955;-40
2022/01/01 03:43:39;;;;;;;;;;;;;;;18.66;55.94;102373.78;5007058;28;19932;-41
2022/01/01 03:46:05;;;;;;;;;;;;;;;18.67;56.33;102369.28;5004464;28;19928;-40
2022/01/01 03:48:31;;;;;;;;;;;;;;;18.66;56.02;102381.84;5007784;28;20360;-40
2022/01/01 03:50:58;;;;;;;;;;;;;;;18.67;55.59;102380.88;5004581;28;19922;-41
2022/01/01 03:53:25;;;;;;;;;;;;;;;18.66;56.02;102381.84;5004063;28;19925;-41
2022/01/01 03:55:52;;;;;;;;;;;;;;;18.66;56.26;102379.16;5004542;28;19928;-41
2022/01/01 03:58:18;;;;;;;;;;;;;;;18.64;56.25;102377.56;5007978;28;20266;-40
2022/01/01 04:00:45;;;;;;;;;;;;;;;18.64;56.34;102367.69;5005109;28;19929;-40
2022/01/01 04:03:12;;;;;;;;;;;;;;;18.64;56.14;102367.69;5010991;28;19921;-41
2022/01/01 04:05:42;;;;;;;;;;;;;;;18.65;56.14;102384.63;5011065;28;19921;-41
2022/01/01 04:08:09;;;;;;;;;;;;;;;18.64;56.60;102385.63;5011084;28;20412;-40
2022/01/01 04:10:36;;;;;;;;;;;;;;;18.64;56.22;102377.56;5006375;28;19928;-41
2022/01/01 04:13:03;;;;;;;;;;;;;;;18.64;56.26;102378.41;5010900;28;20044;-41
2022/01/01 04:15:30;;;;;;;;;;;;;;;18.63;56.34;102384.78;5009104;28;19931;-40
2022/01/01 04:18:00;;;;;;;;;;;;;;;18.64;56.34;102388.31;5007985;28;19926;-41
2022/01/01 04:20:27;;;;;;;;;;;;;;;18.64;56.72;102388.31;5011488;28;20312;-40
2022/01/01 04:22:55;;;;;;;;;;;;;;;18.61;56.17;102381.34;5009285;28;20220;-41
2022/01/01 04:25:22;;;;;;;;;;;;;;;18.61;56.59;102381.34;5008772;28;20485;-41
2022/01/01 04:27:49;;;;;;;;;;;;;;;18.61;56.43;102384.03;5010255;28;19921;-41
2022/01/01 04:30:16;;;;;;;;;;;;;;;18.61;56.46;102385.84;5009138;28;19925;-41
2022/01/01 04:32:42;;;;;;;;;;;;;;;18.61;56.48;102392.06;5009464;28;19925;-40
2022/01/01 04:35:08;;;;;;;;;;;;;;;18.60;56.38;102381.47;5007737;28;20091;-40
2022/01/01 04:37:35;;;;;;;;;;;;;;;18.59;56.19;102369.03;5010697;28;19925;-40
2022/01/01 04:40:03;;;;;;;;;;;;;;;18.59;56.47;102379.75;5011203;28;19921;-40
2022/01/01 04:42:30;;;;;;;;;;;;;;;18.58;56.48;102378.91;5008359;28;19929;-41
2022/01/01 04:44:57;;;;;;;;;;;;;;;18.58;56.42;102386.13;5007287;28;19932;-40
2022/01/01 04:47:24;;;;;;;;;;;;;;;18.57;56.66;102387.91;5011982;28;20371;-40
2022/01/01 04:49:51;;;;;;;;;;;;;;;18.56;56.70;102385.38;5004636;28;19928;-40
2022/01/01 04:52:18;;;;;;;;;;;;;;;18.56;56.58;102394.28;5007841;28;19943;-40
2022/01/01 04:54:44;;;;;;;;;;;;;;;18.56;56.40;102388.06;5009225;28;19921;-41
2022/01/01 04:57:12;;;;;;;;;;;;;;;18.55;56.62;102387.19;5008987;28;20324;-40
2022/01/01 04:59:39;;;;;;;;;;;;;;;18.54;56.28;102390.88;5007184;28;20337;-40
2022/01/01 05:02:06;;;;;;;;;;;;;;;18.53;56.72;102391.81;5011059;28;20336;-40
2022/01/01 05:04:33;;;;;;;;;;;;;;;18.53;56.67;102399.88;5008495;28;20379;-41
2022/01/01 05:06:59;;;;;;;;;;;;;;;18.53;56.83;102394.50;5009793;28;19927;-41
2022/01/01 05:09:28;;;;;;;;;;;;;;;18.53;56.56;102396.34;5011241;28;19941;-40
2022/01/01 05:11:54;;;;;;;;;;;;;;;18.53;56.55;102397.19;5007526;28;20415;-40
2022/01/01 05:14:20;;;;;;;;;;;;;;;18.53;56.82;102396.34;5005854;28;20279;-41
2022/01/01 05:16:47;;;;;;;;;;;;;;;18.52;56.72;102389.25;5007398;28;19921;-40
2022/01/01 05:19:15;;;;;;;;;;;;;;;18.50;56.74;102392.94;5007627;28;19921;-41
2022/01/01 05:21:41;;;;;;;;;;;;;;;18.52;56.50;102391.94;5008645;28;19925;-40
2022/01/01 05:24:08;;;;;;;;;;;;;;;18.50;56.35;102386.72;5006901;28;19921;-40
2022/01/01 05:26:34;;;;;;;;;;;;;;;18.50;56.94;102381.34;5006116;28;19929;-41
2022/01/01 05:29:01;;;;;;;;;;;;;;;18.50;56.67;102375.97;5009552;28;19925;-40
2022/01/01 05:31:28;;;;;;;;;;;;;;;18.49;56.67;102366.19;5008052;28;19925;-40
2022/01/01 05:33:55;;;;;;;;;;;;;;;18.49;56.45;102364.38;5008713;28;20323;-41
2022/01/01 05:36:22;;;;;;;;;;;;;;;18.50;56.67;102362.53;5006991;28;19929;-41
2022/01/01 05:38:49;;;;;;;;;;;;;;;18.49;57.02;102356.31;5009707;28;19921;-41
2022/01/01 05:41:15;;;;;;;;;;;;;;;18.49;56.84;102358.13;5008539;28;19925;-41
2022/01/01 05:43:42;;;;;;;;;;;;;;;18.48;56.61;102367.16;5008920;28;19925;-41
2022/01/01 05:46:08;;;;;;;;;;;;;;;18.48;56.99;102369.84;5006938;28;20024;-41
2022/01/01 05:48:35;;;;;;;;;;;;;;;18.47;56.74;102360.94;5010145;28;19925;-41
2022/01/01 05:51:03;;;;;;;;;;;;;;;18.46;56.88;102350.34;5008203;28;19925;-41
2022/01/01 05:53:30;;;;;;;;;;;;;;;18.46;56.61;102350.34;5008000;28;20035;-41
2022/01/01 05:55:56;;;;;;;;;;;;;;;18.46;56.85;102348.50;5006959;28;19922;-42
2022/01/01 05:58:22;;;;;;;;;;;;;;;18.45;56.88;102354.84;5007872;28;20481;-41
2022/01/01 06:00:49;;;;;;;;;;;;;;;18.45;56.96;102353.97;5007026;28;19936;-41
2022/01/01 06:03:17;;;;;;;;;;;;;;;18.45;56.77;102362.91;5008214;28;19971;-41
2022/01/01 06:05:44;;;;;;;;;;;;;;;18.44;56.73;102358.50;5005968;28;19989;-41
2022/01/01 06:08:10;;;;;;;;;;;;;;;18.45;57.11;102359.34;5006509;28;19928;-41
2022/01/01 06:10:38;;;;;;;;;;;;;;;18.44;56.90;102354.97;5005961;28;20224;-41
2022/01/01 06:13:05;;;;;;;;;;;;;;;18.43;57.19;102340.69;5007899;28;19925;-40
2022/01/01 06:15:32;;;;;;;;;;;;;;;18.44;57.02;102338.84;5004959;28;19925;-40
2022/01/01 06:17:58;;;;;;;;;;;;;;;18.43;57.12;102354.09;5010506;28;20338;-41
2022/01/01 06:20:25;;;;;;;;;;;;;;;18.42;57.27;102359.59;5008008;28;20256;-41
2022/01/01 06:23:03;;;;;;;;;;;;;;;18.42;57.12;102356.91;5006407;28;19929;-41
2022/01/01 06:25:29;;;;;;;;;;;;;;;18.43;57.25;102361.31;5005668;28;19921;-41
2022/01/01 06:27:56;;;;;;;;;;;;;;;18.41;56.91;102360.56;5008236;28;19925;-41
2022/01/01 06:30:22;;;;;;;;;;;;;;;18.42;57.01;102362.28;5004163;28;19936;-40
2022/01/01 06:32:50;;;;;;;;;;;;;;;18.41;57.26;102361.44;5009599;28;19983;-40
2022/01/01 06:35:17;;;;;;;;;;;;;;;18.41;57.11;102357.88;5004707;28;19922;-41
2022/01/01 06:37:43;;;;;;;;;;;;;;;18.41;57.50;102371.28;5006717;28;19929;-41
2022/01/01 06:40:10;;;;;;;;;;;;;;;18.41;56.92;102384.72;5007953;28;19922;-40
2022/01/01 06:42:36;;;;;;;;;;;;;;;18.39;56.93;102374.09;5008096;28;19929;-40
2022/01/01 06:45:02;;;;;;;;;;;;;;;18.39;57.06;102371.44;5008458;28;19921;-41
2022/01/01 06:47:29;;;;;;;;;;;;;;;18.40;57.07;102380.34;5007741;28;20250;-41
2022/01/01 06:49:55;;;;;;;;;;;;;;;18.39;57.22;102384.84;5004049;28;20333;-41
2022/01/01 06:52:21;;;;;;;;;;;;;;;18.39;57.46;102387.53;5009443;28;19932;-41
2022/01/01 06:54:48;;;;;;;;;;;;;;;18.38;57.03;102380.47;5004528;28;19932;-41
2022/01/01 06:57:14;;;;;;;;;;;;;;;18.39;56.90;102381.31;5005256;28;19933;-41
2022/01/01 06:59:40;;;;;;;;;;;;;;;18.39;57.26;102378.63;5005859;28;19921;-42
2022/01/01 07:02:07;;;;;;;;;;;;;;;18.37;57.17;102373.38;5003877;28;19928;-40
2022/01/01 07:04:33;;;;;;;;;;;;;;;18.38;57.30;102371.56;5009181;28;20026;-41
2022/01/01 07:07:00;;;;;;;;;;;;;;;18.39;57.01;102378.63;5007151;28;20288;-41
2022/01/01 07:09:26;;;;;;;;;;;;;;;18.38;57.13;102379.59;5004865;28;19960;-41
2022/01/01 07:11:52;;;;;;;;;;;;;;;18.38;56.84;102383.16;5002238;28;19925;-41
2022/01/01 07:14:21;;;;;;;;;;;;;;;18.37;57.08;102381.44;5010621;28;19932;-41
2022/01/01 07:16:48;;;;;;;;;;;;;;;18.37;57.20;102388.63;5005521;28;20265;-42
2022/01/01 07:19:15;;;;;;;;;;;;;;;18.38;57.30;102384.97;5006863;28;19925;-42
2022/01/01 07:21:41;;;;;;;;;;;;;;;18.37;57.34;102377.88;5007074;28;19921;-41
2022/01/01 07:24:07;;;;;;;;;;;;;;;18.37;57.29;102381.44;5002322;28;19925;-42
2022/01/01 07:26:34;;;;;;;;;;;;;;;18.37;56.98;102385.94;5003209;28;19934;-42
2022/01/01 07:29:00;;;;;;;;;;;;;;;18.37;56.99;102391.28;5005539;28;19932;-42
2022/01/01 07:31:26;;;;;;;;;;;;;;;18.37;57.08;102391.28;5002219;28;19921;-42
2022/01/01 07:33:53;;;;;;;;;;;;;;;18.37;57.12;102386.81;5003268;28;19928;-42
2022/01/01 07:36:19;;;;;;;;;;;;;;;18.37;57.20;102388.63;5004362;28;19930;-42
2022/01/01 07:38:46;;;;;;;;;;;;;;;18.35;57.02;102387.88;5003652;28;19929;-42
2022/01/01 07:41:12;;;;;;;;;;;;;;;18.37;56.66;102384.13;5000350;28;19921;-42
2022/01/01 07:43:38;;;;;;;;;;;;;;;18.36;57.12;102387.75;5004856;28;19921;-42
2022/01/01 07:46:05;;;;;;;;;;;;;;;18.36;56.95;102392.28;5003702;28;19929;-42
2022/01/01 07:48:31;;;;;;;;;;;;;;;18.37;56.81;102399.34;5000309;28;20279;-42
2022/01/01 07:50:57;;;;;;;;;;;;;;;18.37;56.87;102399.34;5005612;28;19926;-42
2022/01/01 07:53:24;;;;;;;;;;;;;;;18.37;56.44;102393.97;5006247;28;19922;-39
2022/01/01 07:55:50;;;;;;;;;;;;;;;18.36;57.12;102400.34;4999915;28;20368;-43
2022/01/01 07:58:17;;;;;;;;;;;;;;;18.35;57.17;102398.63;5005398;28;19928;-42
2022/01/01 08:00:43;;;;;;;;;;;;;;;18.35;56.82;102399.47;5003568;28;20385;-41
2022/01/01 08:03:11;;;;;;;;;;;;;;;18.35;56.74;102395.94;5003715;28;19921;-41
2022/01/01 08:05:37;;;;;;;;;;;;;;;18.35;56.81;102396.78;5001469;28;20529;-41
2022/01/01 08:08:04;;;;;;;;;;;;;;;18.36;56.98;102390.44;5004951;28;20471;-41
2022/01/01 08:10:31;;;;;;;;;;;;;;;18.35;56.67;102393.25;5002469;28;19928;-41
2022/01/01 08:12:57;;;;;;;;;;;;;;;18.35;56.90;102395.94;5004833;28;19921;-42
2022/01/01 08:15:24;;;;;;;;;;;;;;;18.34;56.67;102397.78;5000077;28;20352;-41
2022/01/01 08:17:50;;;;;;;;;;;;;;;18.34;56.98;102396.94;5006190;28;19928;-41
2022/01/01 08:20:17;;;;;;;;;;;;;;;18.35;56.65;102390.56;5002644;28;20016;-41
2022/01/01 08:22:43;;;;;;;;;;;;;;;18.36;57.03;102389.59;5002743;28;19921;-41
2022/01/01 08:25:10;;;;;;;;;;;;;;;18.36;56.71;102384.22;5003172;28;19940;-41
2022/01/01 08:27:36;;;;;;;;;;;;;;;18.35;56.52;102380.69;5002981;28;19943;-41
2022/01/01 08:30:03;;;;;;;;;;;;;;;18.36;56.61;102382.38;5002424;28;20461;-41
2022/01/01 08:32:29;;;;;;;;;;;;;;;18.36;56.39;102381.53;4998149;28;20394;-41
2022/01/01 08:34:56;;;;;;;;;;;;;;;18.36;56.75;102386.91;5001674;28;19926;-41
2022/01/01 08:37:22;;;;;;;;;;;;;;;18.37;56.77;102391.28;5003902;28;19921;-41
2022/01/01 08:39:48;;;;;;;;;;;;;;;18.36;56.54;102386.91;5003733;28;20359;-41
2022/01/01 08:42:15;;;;;;;;;;;;;;;18.37;56.50;102391.28;5004064;28;20210;-41
2022/01/01 08:44:42;;;;;;;;;;;;;;;18.37;56.26;102393.97;5003910;28;19925;-40
2022/01/01 08:47:09;;;;;;;;;;;;;;;18.37;56.48;102400.22;5004515;28;19932;-41
2022/01/01 08:49:35;;;;;;;;;;;;;;;18.37;56.01;102400.22;5004340;28;19929;-41
2022/01/01 08:52:01;;;;;;;;;;;;;;;18.37;56.02;102400.22;5010623;28;19931;-41
2022/01/01 08:54:28;;;;;;;;;;;;;;;18.38;56.39;102395.72;5005657;28;19971;-41
2022/01/01 08:56:55;;;;;;;;;;;;;;;18.38;56.41;102377.78;5005743;28;19972;-41
2022/01/01 08:59:22;;;;;;;;;;;;;;;18.38;56.33;102372.41;5004276;28;19926;-41
2022/01/01 09:01:48;;;;;;;;;;;;;;;18.39;56.05;102382.16;5005385;28;19939;-41
2022/01/01 09:04:14;;;;;;;;;;;;;;;18.39;55.79;102384.84;5008020;28;19929;-41
2022/01/01 09:06:41;;;;;;;;;;;;;;;18.39;56.58;102389.38;5008086;28;20598;-42
2022/01/01 09:09:07;;;;;;;;;;;;;;;18.40;56.75;102385.69;5003732;28;20256;-42
2022/01/01 09:11:34;;;;;;;;;;;;;;;18.40;55.84;102383.00;5007215;28;20317;-40
2022/01/01 09:14:00;;;;;;;;;;;;;;;18.39;55.79;102378.63;5004513;28;20245;-41
2022/01/01 09:16:29;;;;;;;;;;;;;;;18.39;56.21;102376.78;5008559;28;20016;-41
2022/01/01 09:18:56;;;;;;;;;;;;;;;18.39;56.49;102376.78;5004784;28;20004;-42
2022/01/01 09:21:23;;;;;;;;;;;;;;;18.39;56.16;102373.25;5010292;28;19921;-41
2022/01/01 09:23:50;;;;;;;;;;;;;;;18.41;55.94;102379.34;5000224;28;19921;-41
2022/01/01 09:26:18;;;;;;;;;;;;;;;18.40;56.19;102375.81;5005296;28;20012;-41
2022/01/01 09:28:45;;;;;;;;;;;;;;;18.40;55.89;102378.50;5003335;28;20131;-41
2022/01/01 09:31:11;;;;;;;;;;;;;;;18.41;56.00;102376.66;5004200;28;19983;-41
2022/01/01 09:33:37;;;;;;;;;;;;;;;18.40;55.98;102369.59;5005146;28;20206;-41
2022/01/01 09:36:05;;;;;;;;;;;;;;;18.40;55.74;102365.06;5008614;28;19921;-41
2022/01/01 09:38:33;;;;;;;;;;;;;;;18.41;55.51;102363.25;5005961;28;20375;-41
2022/01/01 09:41:00;;;;;;;;;;;;;;;18.40;55.86;102353.47;5004861;28;20012;-41
2022/01/01 09:43:27;;;;;;;;;;;;;;;18.41;55.96;102355.19;5007680;28;19928;-41
2022/01/01 09:45:54;;;;;;;;;;;;;;;18.41;55.98;102355.19;5003031;28;19955;-41
2022/01/01 09:48:21;;;;;;;;;;;;;;;18.42;56.05;102352.41;5004749;28;20361;-41
2022/01/01 09:50:54;;;;;;;;;;;;;;;18.44;56.42;102349.59;5003507;28;19973;-41
2022/01/01 09:53:23;;;;;;;;;;;;;;;18.47;56.10;102333.25;5005253;28;19921;-40
2022/01/01 09:55:53;;;;;;;;;;;;;;;18.48;56.07;102346.53;5003088;28;19925;-40
2022/01/01 09:58:24;;;;;;;;;;;;;;;18.52;56.21;102330.19;5003283;28;20020;-41
2022/01/01 10:00:52;;;;;;;;;;;;;;;18.52;55.25;102314.09;5003015;28;20012;-41
2022/01/01 10:03:36;;;;;;;;;;;;;;;18.55;55.32;102308.47;5002554;28;19929;-41
2022/01/01 10:06:03;;;;;;;;;;;;;;;18.58;55.83;102324.34;5006182;28;19928;-41
2022/01/01 10:08:30;;;;;;;;;;;;;;;18.60;55.81;102325.06;5003881;28;20027;-41
2022/01/01 10:10:57;;;;;;;;;;;;;;;18.62;55.34;102336.56;5003758;28;19957;-42
2022/01/01 10:13:30;;;;;;;;;;;;;;;18.65;55.44;102344.34;5007722;28;19929;-42
2022/01/01 10:15:57;;;;;;;;;;;;;;;18.65;55.34;102339.88;5004676;28;20193;-41
2022/01/01 10:18:25;;;;;;;;;;;;;;;18.67;55.67;102345.09;5004760;28;19943;-41
2022/01/01 10:21:02;;;;;;;;;;;;;;;18.67;54.75;102337.06;5002781;28;19926;-42
2022/01/01 10:23:30;;;;;;;;;;;;;;;18.68;55.00;102346.81;4998876;28;20328;-41
2022/01/01 10:28:55;;;;;;;;;;;;;;;18.69;55.17;102349.41;5004334;28;20029;-41
2022/01/01 10:31:21;;;;;;;;;;;;;;;18.71;55.57;102350.13;5005768;28;20008;-41
2022/01/01 10:33:48;;;;;;;;;;;;;;;18.71;54.58;102352.81;5005621;28;20061;-41
2022/01/01 10:36:14;;;;;;;;;;;;;;;18.72;54.65;102342.94;5006499;28;20347;-41
2022/01/01 10:38:41;;;;;;;;;;;;;;;18.72;54.16;102343.78;5003472;28;19930;-41
2022/01/01 10:41:09;;;;;;;;;;;;;;;18.71;55.01;102344.78;5000824;28;19921;-41
2022/01/01 10:43:36;;;;;;;;;;;;;;;18.70;54.43;102334.16;5006665;28;19984;-42
2022/01/01 10:46:06;;;;;;;;;;;;;;;18.69;54.72;102335.97;5005651;28;19929;-42
2022/01/01 10:51:05;;;;;;;;;;;;;;;18.70;54.82;102339.53;5004408;28;20336;-41
2022/01/01 10:53:31;;;;;;;;;;;;;;;18.70;55.20;102336.84;5004698;28;20029;-42
2022/01/01 10:55:59;;;;;;;;;;;;;;;18.71;55.43;102334.03;5003426;28;19922;-42
2022/01/01 10:58:27;;;;;;;;;;;;;;;18.73;55.77;102337.47;5003645;28;19930;-42
2022/01/01 11:01:04;;;;;;;;;;;;;;;18.75;55.59;102331.94;5002311;28;19922;-42
2022/01/01 11:03:38;;;;;;;;;;;;;;;18.77;55.36;102324.63;5006728;28;20048;-43
2022/01/01 11:06:06;;;;;;;;;;;;;;;18.78;55.39;102326.34;5004549;28;20445;-42
2022/01/01 11:08:34;;;;;;;;;;;;;;;18.80;55.23;102321.69;5006062;28;20052;-42
2022/01/01 11:11:01;;;;;;;;;;;;;;;18.82;54.87;102335.88;5002094;28;19922;-42
2022/01/01 11:13:27;;;;;;;;;;;;;;;18.83;54.91;102325.97;5003974;28;20249;-41
2022/01/01 11:15:53;;;;;;;;;;;;;;;18.84;54.73;102323.16;5000222;28;20331;-42
2022/01/01 11:18:21;;;;;;;;;;;;;;;18.85;54.96;102313.25;5008168;28;19980;-42
2022/01/01 11:20:49;;;;;;;;;;;;;;;18.85;54.86;102308.72;5000720;28;20353;-43
2022/01/01 11:23:16;;;;;;;;;;;;;;;18.87;54.56;102322.06;5003430;28;20052;-42
2022/01/01 11:25:42;;;;;;;;;;;;;;;18.88;55.05;102299.59;5000561;28;19925;-42
2022/01/01 11:28:10;;;;;;;;;;;;;;;18.89;54.54;102290.53;5003572;28;19922;-42
2022/01/01 11:30:41;;;;;;;;;;;;;;;18.90;54.57;102297.66;5004387;28;20035;-42
2022/01/01 11:33:09;;;;;;;;;;;;;;;18.93;54.68;102292.00;5004922;28;19978;-42
2022/01/01 11:35:38;;;;;;;;;;;;;;;18.94;54.57;102296.41;5003910;28;20379;-41
2022/01/01 11:38:09;;;;;;;;;;;;;;;18.94;54.48;102294.59;5001621;28;19928;-42
2022/01/01 11:40:52;;;;;;;;;;;;;;;18.95;54.36;102293.59;5004084;28;19955;-43
2022/01/01 11:43:35;;;;;;;;;;;;;;;18.96;54.32;102289.06;5000307;28;20028;-42
2022/01/01 11:46:10;;;;;;;;;;;;;;;18.96;54.09;102272.94;5001496;28;20981;-42
2022/01/01 11:48:41;;;;;;;;;;;;;;;18.95;54.34;102274.78;5007815;28;19929;-42
2022/01/01 11:51:23;;;;;;;;;;;;;;;18.94;53.87;102273.09;5001728;28;20416;-42
2022/01/01 11:54:07;;;;;;;;;;;;;;;18.96;54.16;102259.50;5003073;28;19927;-42
2022/01/01 11:56:46;;;;;;;;;;;;;;;18.95;54.15;102260.50;5004433;28;19925;-42
2022/01/01 11:59:17;;;;;;;;;;;;;;;18.93;54.71;102265.13;5002967;28;19927;-42
2022/01/01 12:01:43;;;;;;;;;;;;;;;18.90;54.39;102266.25;5005468;28;19921;-43
2022/01/01 12:04:25;;;;;;;;;;;;;;;18.91;54.58;102267.09;5003178;28;19929;-43
2022/01/01 12:06:58;;;;;;;;;;;;;;;18.91;54.52;102262.59;5002183;28;20024;-41
2022/01/01 12:09:24;;;;;;;;;;;;;;;18.93;55.11;102268.66;5002450;28;19931;-42
2022/01/01 12:11:54;;;;;;;;;;;;;;;18.96;54.67;102268.44;5008852;28;19929;-42
2022/01/01 12:14:25;;;;;;;;;;;;;;;18.96;55.07;102268.44;5000753;28;19926;-41
2022/01/01 12:16:53;;;;;;;;;;;;;;;18.98;54.67;102266.47;5000588;28;19923;-42
2022/01/01 12:19:21;;;;;;;;;;;;;;;19.00;54.18;102266.34;5003895;28;20520;-42
2022/01/01 12:21:48;;;;;;;;;;;;;;;19.00;54.41;102255.59;5001102;28;19926;-41
2022/01/01 12:24:18;;;;;;;;;;;;;;;19.01;54.20;102259.97;5005046;28;20416;-41
2022/01/01 12:26:54;;;;;;;;;;;;;;;19.02;53.78;102272.47;5006514;28;19945;-42
2022/01/01 12:29:26;;;;;;;;;;;;;;;19.00;54.07;102255.59;5004901;28;19921;-42
2022/01/01 12:31:56;;;;;;;;;;;;;;;18.99;53.70;102253.91;5005866;28;20042;-41
2022/01/01 12:34:23;;;;;;;;;;;;;;;18.98;53.93;102260.25;5005502;28;19972;-41
2022/01/01 12:36:54;;;;;;;;;;;;;;;18.97;53.85;102251.34;5004717;28;20483;-41
2022/01/01 12:39:21;;;;;;;;;;;;;;;18.96;54.04;102251.47;5007571;28;19925;-41
2022/01/01 12:41:47;;;;;;;;;;;;;;;18.95;54.08;102242.53;5009454;28;20024;-41
2022/01/01 12:44:21;;;;;;;;;;;;;;;18.94;54.28;102237.31;5008948;28;19933;-42
2022/01/01 12:46:49;;;;;;;;;;;;;;;18.94;54.07;102234.63;5007022;28;20436;-41